createdAt,value
2023-01-29T00:00:33.107Z,88.71
2023-01-29T00:01:33.135Z,88.50
2023-01-29T00:02:33.087Z,88.71
2023-01-29T00:03:33.131Z,88.50
2023-01-29T00:04:33.071Z,88.50
2023-01-29T00:05:33.068Z,88.44
2023-01-29T00:06:33.070Z,88.50
2023-01-29T00:07:33.062Z,88.40
2023-01-29T00:08:33.033Z,88.71
2023-01-29T00:09:33.025Z,88.44
2023-01-29T00:10:33.039Z,88.44
2023-01-29T00:11:33.047Z,88.61
2023-01-29T00:12:32.984Z,88.61
2023-01-29T00:13:32.989Z,88.71
2023-01-29T00:14:32.976Z,88.71
2023-01-29T00:15:32.970Z,88.19
2023-01-29T00:16:32.991Z,88.29
2023-01-29T00:17:32.982Z,88.29
2023-01-29T00:18:32.932Z,88.50
2023-01-29T00:19:32.931Z,88.40
2023-01-29T00:20:32.900Z,88.40
2023-01-29T00:21:32.908Z,88.40
2023-01-29T00:22:32.962Z,88.29
2023-01-29T00:23:32.887Z,88.50
2023-01-29T00:24:33.025Z,88.82
2023-01-29T00:25:33.924Z,89.03
2023-01-29T00:26:32.899Z,89.34
2023-01-29T00:27:32.866Z,88.92
2023-01-29T00:28:32.835Z,88.50
2023-01-29T00:29:32.832Z,88.50
2023-01-29T00:30:32.850Z,89.13
2023-01-29T00:31:32.904Z,89.34
2023-01-29T00:32:32.792Z,88.71
2023-01-29T00:33:32.780Z,88.61
2023-01-29T00:34:32.803Z,89.03
2023-01-29T00:35:32.765Z,88.82
2023-01-29T00:36:32.760Z,88.71
2023-01-29T00:37:32.757Z,88.82
2023-01-29T00:38:32.720Z,88.71
2023-01-29T00:39:46.790Z,88.50
2023-01-29T00:40:32.716Z,88.19
2023-01-29T00:41:32.703Z,88.19
2023-01-29T00:42:32.697Z,88.61
2023-01-29T00:43:32.704Z,88.61
2023-01-29T00:44:32.653Z,88.82
2023-01-29T00:45:32.747Z,88.92
2023-01-29T00:46:32.722Z,89.23
2023-01-29T00:47:32.674Z,89.45
2023-01-29T00:48:32.623Z,89.55
2023-01-29T00:49:32.621Z,89.65
2023-01-29T00:50:32.610Z,88.92
2023-01-29T00:51:32.617Z,88.71
2023-01-29T00:52:32.604Z,88.75
2023-01-29T00:53:32.589Z,88.96
2023-01-29T00:54:33.252Z,88.96
2023-01-29T00:55:32.565Z,89.07
2023-01-29T00:56:32.549Z,89.45
2023-01-29T00:57:32.577Z,89.59
2023-01-29T00:58:32.544Z,89.59
2023-01-29T00:59:33.963Z,89.03
2023-01-29T01:00:32.515Z,88.82
2023-01-29T01:01:32.504Z,88.92
2023-01-29T01:02:32.479Z,89.13
2023-01-29T01:03:32.526Z,88.82
2023-01-29T01:04:35.042Z,88.61
2023-01-29T01:05:32.449Z,88.82
2023-01-29T01:06:32.439Z,88.82
2023-01-29T01:07:32.443Z,88.82
2023-01-29T01:08:32.414Z,88.50
2023-01-29T01:09:32.444Z,88.71
2023-01-29T01:10:32.427Z,88.92
2023-01-29T01:11:32.403Z,88.92
2023-01-29T01:12:32.377Z,88.82
2023-01-29T01:13:32.387Z,88.50
2023-01-29T01:14:32.393Z,88.82
2023-01-29T01:15:32.375Z,89.34
2023-01-29T01:16:32.408Z,89.34
2023-01-29T01:17:32.373Z,89.13
2023-01-29T01:18:32.362Z,89.03
2023-01-29T01:19:32.407Z,89.55
2023-01-29T01:20:32.318Z,89.76
2023-01-29T01:21:32.299Z,89.86
2023-01-29T01:22:32.314Z,89.86
2023-01-29T01:23:32.279Z,89.76
2023-01-29T01:24:32.344Z,89.86
2023-01-29T01:25:32.271Z,89.97
2023-01-29T01:26:32.264Z,89.97
2023-01-29T01:27:32.327Z,90.08
2023-01-29T01:28:32.210Z,90.18
2023-01-29T01:29:32.208Z,89.86
2023-01-29T01:30:32.186Z,89.76
2023-01-29T01:31:32.541Z,89.55
2023-01-29T01:32:32.177Z,89.55
2023-01-29T01:33:32.187Z,89.65
2023-01-29T01:34:32.156Z,89.97
2023-01-29T01:35:32.242Z,90.08
2023-01-29T01:36:32.133Z,89.97
2023-01-29T01:37:32.154Z,89.97
2023-01-29T01:38:32.113Z,89.45
2023-01-29T01:39:32.158Z,89.45
2023-01-29T01:40:32.114Z,89.55
2023-01-29T01:41:32.144Z,89.55
2023-01-29T01:42:32.440Z,89.55
2023-01-29T01:43:32.097Z,89.65
2023-01-29T01:44:32.051Z,89.86
2023-01-29T01:45:32.264Z,89.34
2023-01-29T01:46:32.032Z,89.34
2023-01-29T01:47:32.052Z,89.13
2023-01-29T01:48:32.862Z,89.23
2023-01-29T01:49:32.011Z,89.03
2023-01-29T01:50:32.045Z,88.71
2023-01-29T01:51:32.097Z,88.71
2023-01-29T01:52:31.994Z,88.50
2023-01-29T01:53:31.969Z,88.71
2023-01-29T01:54:32.080Z,88.61
2023-01-29T01:55:31.957Z,88.71
2023-01-29T01:56:31.944Z,88.71
2023-01-29T01:57:31.935Z,88.71
2023-01-29T01:58:31.930Z,88.92
2023-01-29T01:59:31.913Z,89.23
2023-01-29T02:00:31.883Z,88.92
2023-01-29T02:01:31.885Z,88.75
2023-01-29T02:02:32.013Z,89.07
2023-01-29T02:03:31.863Z,89.17
2023-01-29T02:04:31.853Z,89.38
2023-01-29T02:05:32.105Z,89.80
2023-01-29T02:06:31.855Z,90.11
2023-01-29T02:07:31.888Z,90.11
2023-01-29T02:08:32.565Z,89.80
2023-01-29T02:09:31.807Z,89.90
2023-01-29T02:10:31.782Z,90.11
2023-01-29T02:11:31.791Z,90.11
2023-01-29T02:12:31.755Z,90.43
2023-01-29T02:13:31.785Z,90.43
2023-01-29T02:14:31.772Z,90.33
2023-01-29T02:15:31.757Z,89.80
2023-01-29T02:16:31.770Z,89.70
2023-01-29T02:17:31.739Z,89.80
2023-01-29T02:18:31.708Z,90.22
2023-01-29T02:19:31.726Z,90.53
2023-01-29T02:20:34.505Z,90.74
2023-01-29T02:21:31.739Z,90.84
2023-01-29T02:22:31.745Z,90.74
2023-01-29T02:23:32.630Z,90.22
2023-01-29T02:24:31.690Z,90.11
2023-01-29T02:25:31.637Z,89.70
2023-01-29T02:26:31.771Z,89.90
2023-01-29T02:27:34.378Z,89.80
2023-01-29T02:28:31.629Z,89.80
2023-01-29T02:29:31.606Z,90.22
2023-01-29T02:30:31.605Z,90.22
2023-01-29T02:31:31.632Z,90.11
2023-01-29T02:32:31.637Z,90.22
2023-01-29T02:33:32.369Z,90.22
2023-01-29T02:34:31.561Z,90.43
2023-01-29T02:35:31.577Z,90.33
2023-01-29T02:36:31.535Z,90.22
2023-01-29T02:37:31.526Z,90.33
2023-01-29T02:38:31.727Z,90.53
2023-01-29T02:39:31.644Z,90.43
2023-01-29T02:40:31.474Z,90.33
2023-01-29T02:41:31.725Z,90.43
2023-01-29T02:42:31.457Z,90.53
2023-01-29T02:43:31.472Z,90.53
2023-01-29T02:44:31.478Z,90.64
2023-01-29T02:45:31.484Z,90.64
2023-01-29T02:46:31.413Z,91.16
2023-01-29T02:47:31.441Z,91.58
2023-01-29T02:48:31.404Z,91.69
2023-01-29T02:49:31.397Z,91.37
2023-01-29T02:50:31.379Z,90.84
2023-01-29T02:51:31.388Z,90.74
2023-01-29T02:52:31.356Z,90.84
2023-01-29T02:53:31.368Z,90.95
2023-01-29T02:54:31.350Z,90.84
2023-01-29T02:55:31.327Z,90.74
2023-01-29T02:56:31.357Z,90.64
2023-01-29T02:57:31.311Z,90.53
2023-01-29T02:58:31.301Z,90.53
2023-01-29T02:59:31.295Z,90.43
2023-01-29T03:00:31.261Z,90.53
2023-01-29T03:01:31.294Z,90.84
2023-01-29T03:02:31.365Z,91.06
2023-01-29T03:03:31.253Z,90.95
2023-01-29T03:04:31.226Z,90.95
2023-01-29T03:05:31.223Z,90.84
2023-01-29T03:06:31.218Z,90.84
2023-01-29T03:07:31.212Z,90.84
2023-01-29T03:08:31.218Z,91.27
2023-01-29T03:09:31.196Z,91.47
2023-01-29T03:10:31.166Z,91.37
2023-01-29T03:11:31.174Z,90.95
2023-01-29T03:12:31.164Z,90.84
2023-01-29T03:13:31.146Z,90.95
2023-01-29T03:14:31.160Z,91.16
2023-01-29T03:15:31.153Z,91.47
2023-01-29T03:16:31.187Z,91.47
2023-01-29T03:17:31.112Z,91.27
2023-01-29T03:18:31.094Z,91.16
2023-01-29T03:19:31.084Z,91.37
2023-01-29T03:20:31.163Z,91.27
2023-01-29T03:21:31.089Z,91.16
2023-01-29T03:22:31.054Z,91.27
2023-01-29T03:23:31.046Z,91.06
2023-01-29T03:24:31.045Z,90.95
2023-01-29T03:25:31.043Z,91.16
2023-01-29T03:26:31.108Z,90.95
2023-01-29T03:27:31.012Z,91.06
2023-01-29T03:28:30.999Z,90.95
2023-01-29T03:29:30.988Z,90.95
2023-01-29T03:30:31.031Z,91.27
2023-01-29T03:31:31.128Z,91.47
2023-01-29T03:32:31.001Z,91.37
2023-01-29T03:33:31.055Z,91.27
2023-01-29T03:34:31.101Z,91.27
2023-01-29T03:35:31.066Z,91.27
2023-01-29T03:36:30.940Z,91.37
2023-01-29T03:37:30.966Z,91.27
2023-01-29T03:38:31.016Z,91.06
2023-01-29T03:39:30.969Z,91.16
2023-01-29T03:40:31.004Z,91.37
2023-01-29T03:41:31.043Z,91.16
2023-01-29T03:42:30.850Z,91.16
2023-01-29T03:43:30.949Z,91.16
2023-01-29T03:44:30.831Z,91.37
2023-01-29T03:45:30.872Z,91.47
2023-01-29T03:46:30.824Z,91.47
2023-01-29T03:47:30.781Z,90.95
2023-01-29T03:48:30.790Z,90.95
2023-01-29T03:49:30.771Z,90.95
2023-01-29T03:50:30.786Z,91.06
2023-01-29T03:51:30.773Z,91.06
2023-01-29T03:52:30.744Z,90.84
2023-01-29T03:53:30.743Z,90.95
2023-01-29T03:54:30.716Z,91.06
2023-01-29T03:55:30.730Z,91.37
2023-01-29T03:56:30.726Z,91.37
2023-01-29T03:57:30.692Z,91.27
2023-01-29T03:58:30.702Z,91.27
2023-01-29T03:59:30.676Z,91.16
2023-01-29T04:00:30.665Z,91.33
2023-01-29T04:01:30.699Z,91.43
2023-01-29T04:02:30.645Z,91.22
2023-01-29T04:03:30.621Z,91.37
2023-01-29T04:04:30.659Z,91.22
2023-01-29T04:05:30.605Z,91.12
2023-01-29T04:06:30.622Z,91.12
2023-01-29T04:07:30.596Z,91.22
2023-01-29T04:08:30.641Z,91.22
2023-01-29T04:09:30.588Z,91.12
2023-01-29T04:10:30.559Z,90.91
2023-01-29T04:11:30.549Z,91.43
2023-01-29T04:12:30.547Z,91.54
2023-01-29T04:13:30.592Z,91.22
2023-01-29T04:14:30.519Z,91.22
2023-01-29T04:15:30.542Z,91.43
2023-01-29T04:16:30.561Z,91.75
2023-01-29T04:17:30.498Z,91.85
2023-01-29T04:18:30.534Z,91.54
2023-01-29T04:19:30.479Z,91.54
2023-01-29T04:20:30.463Z,91.43
2023-01-29T04:21:30.441Z,91.22
2023-01-29T04:22:31.244Z,90.91
2023-01-29T04:23:30.419Z,90.70
2023-01-29T04:24:30.511Z,91.02
2023-01-29T04:25:30.480Z,90.91
2023-01-29T04:26:30.455Z,91.22
2023-01-29T04:27:30.380Z,91.43
2023-01-29T04:28:30.387Z,91.12
2023-01-29T04:29:30.489Z,91.12
2023-01-29T04:30:30.422Z,91.12
2023-01-29T04:31:30.462Z,90.91
2023-01-29T04:32:30.437Z,90.91
2023-01-29T04:33:30.342Z,90.70
2023-01-29T04:34:30.319Z,90.59
2023-01-29T04:35:31.242Z,90.91
2023-01-29T04:36:30.335Z,91.12
2023-01-29T04:37:30.410Z,90.95
2023-01-29T04:38:30.316Z,91.06
2023-01-29T04:39:30.260Z,91.06
2023-01-29T04:40:30.798Z,91.16
2023-01-29T04:41:30.347Z,91.33
2023-01-29T04:42:30.253Z,91.47
2023-01-29T04:43:30.227Z,91.43
2023-01-29T04:44:30.281Z,91.37
2023-01-29T04:45:30.255Z,91.37
2023-01-29T04:46:30.217Z,91.47
2023-01-29T04:47:30.264Z,91.37
2023-01-29T04:48:30.186Z,91.58
2023-01-29T04:49:30.169Z,91.69
2023-01-29T04:50:30.149Z,91.47
2023-01-29T04:51:30.137Z,91.54
2023-01-29T04:52:30.152Z,91.43
2023-01-29T04:53:30.133Z,91.33
2023-01-29T04:54:30.122Z,91.22
2023-01-29T04:55:30.091Z,91.58
2023-01-29T04:56:30.296Z,91.64
2023-01-29T04:57:30.101Z,91.37
2023-01-29T04:58:30.121Z,91.37
2023-01-29T04:59:30.058Z,91.54
2023-01-29T05:00:30.060Z,91.37
2023-01-29T05:01:30.210Z,91.37
2023-01-29T05:02:30.077Z,91.37
2023-01-29T05:03:30.036Z,91.58
2023-01-29T05:04:30.033Z,91.37
2023-01-29T05:05:30.030Z,91.16
2023-01-29T05:06:29.985Z,91.47
2023-01-29T05:07:30.021Z,91.47
2023-01-29T05:08:30.009Z,91.58
2023-01-29T05:09:29.963Z,91.27
2023-01-29T05:10:29.948Z,91.58
2023-01-29T05:11:30.089Z,91.79
2023-01-29T05:12:29.943Z,91.79
2023-01-29T05:13:29.930Z,91.79
2023-01-29T05:14:29.915Z,91.79
2023-01-29T05:15:29.895Z,91.79
2023-01-29T05:16:29.891Z,91.58
2023-01-29T05:17:29.874Z,91.69
2023-01-29T05:18:29.908Z,91.89
2023-01-29T05:19:29.848Z,91.89
2023-01-29T05:20:29.862Z,92.00
2023-01-29T05:21:29.835Z,91.89
2023-01-29T05:22:29.830Z,91.79
2023-01-29T05:23:29.843Z,91.79
2023-01-29T05:24:29.862Z,91.89
2023-01-29T05:25:29.794Z,91.89
2023-01-29T05:26:29.781Z,92.21
2023-01-29T05:27:29.775Z,92.21
2023-01-29T05:28:29.773Z,92.10
2023-01-29T05:29:29.768Z,92.10
2023-01-29T05:30:29.745Z,92.42
2023-01-29T05:31:30.019Z,92.31
2023-01-29T05:32:29.794Z,92.21
2023-01-29T05:33:29.758Z,92.31
2023-01-29T05:34:29.711Z,92.63
2023-01-29T05:35:29.899Z,92.63
2023-01-29T05:36:29.703Z,92.63
2023-01-29T05:37:31.199Z,92.63
2023-01-29T05:38:29.722Z,92.42
2023-01-29T05:39:29.772Z,92.52
2023-01-29T05:40:29.825Z,92.63
2023-01-29T05:41:29.654Z,92.73
2023-01-29T05:42:29.953Z,92.73
2023-01-29T05:43:29.659Z,92.63
2023-01-29T05:44:29.627Z,92.52
2023-01-29T05:45:29.632Z,92.63
2023-01-29T05:46:29.751Z,92.52
2023-01-29T05:47:29.764Z,92.52
2023-01-29T05:48:29.749Z,92.42
2023-01-29T05:49:29.707Z,92.52
2023-01-29T05:50:29.658Z,92.52
2023-01-29T05:51:29.569Z,92.63
2023-01-29T05:52:29.688Z,92.63
2023-01-29T05:53:31.289Z,92.42
2023-01-29T05:54:29.558Z,92.42
2023-01-29T05:55:29.486Z,92.42
2023-01-29T05:56:29.579Z,92.63
2023-01-29T05:57:29.480Z,92.73
2023-01-29T05:58:29.518Z,92.63
2023-01-29T05:59:29.723Z,92.42
2023-01-29T06:00:29.791Z,92.52
2023-01-29T06:01:29.484Z,92.73
2023-01-29T06:02:29.744Z,92.94
2023-01-29T06:03:29.840Z,92.94
2023-01-29T06:04:29.441Z,92.94
2023-01-29T06:05:29.683Z,92.73
2023-01-29T06:06:29.648Z,92.63
2023-01-29T06:07:29.387Z,92.52
2023-01-29T06:08:29.365Z,92.73
2023-01-29T06:09:29.371Z,92.63
2023-01-29T06:10:29.328Z,92.42
2023-01-29T06:11:29.320Z,92.63
2023-01-29T06:12:29.323Z,92.83
2023-01-29T06:13:29.319Z,92.63
2023-01-29T06:14:29.327Z,92.94
2023-01-29T06:15:29.282Z,92.83
2023-01-29T06:16:29.430Z,92.83
2023-01-29T06:17:29.302Z,92.63
2023-01-29T06:18:30.088Z,92.73
2023-01-29T06:19:29.245Z,92.73
2023-01-29T06:20:29.939Z,92.94
2023-01-29T06:21:29.354Z,92.73
2023-01-29T06:22:29.327Z,92.63
2023-01-29T06:23:29.355Z,92.63
2023-01-29T06:24:29.306Z,92.63
2023-01-29T06:25:29.223Z,92.83
2023-01-29T06:26:29.200Z,93.04
2023-01-29T06:27:29.553Z,93.04
2023-01-29T06:28:29.196Z,93.15
2023-01-29T06:29:29.241Z,92.94
2023-01-29T06:30:29.162Z,92.94
2023-01-29T06:31:38.212Z,92.94
2023-01-29T06:32:29.238Z,93.01
2023-01-29T06:33:29.356Z,92.90
2023-01-29T06:34:29.190Z,92.52
2023-01-29T06:35:29.109Z,92.69
2023-01-29T06:36:29.096Z,92.58
2023-01-29T06:37:29.069Z,92.42
2023-01-29T06:38:29.079Z,92.38
2023-01-29T06:39:29.052Z,92.42
2023-01-29T06:40:29.055Z,92.58
2023-01-29T06:41:29.140Z,92.79
2023-01-29T06:42:29.043Z,92.69
2023-01-29T06:43:29.076Z,92.69
2023-01-29T06:44:28.996Z,92.58
2023-01-29T06:45:29.007Z,92.79
2023-01-29T06:46:29.008Z,92.48
2023-01-29T06:47:29.059Z,92.63
2023-01-29T06:48:29.076Z,92.48
2023-01-29T06:49:29.077Z,92.27
2023-01-29T06:50:29.105Z,92.16
2023-01-29T06:51:28.902Z,92.16
2023-01-29T06:52:28.981Z,92.16
2023-01-29T06:53:28.979Z,92.27
2023-01-29T06:54:28.845Z,92.38
2023-01-29T06:55:29.011Z,92.58
2023-01-29T06:56:29.330Z,92.69
2023-01-29T06:57:29.054Z,92.79
2023-01-29T06:58:28.858Z,92.79
2023-01-29T06:59:28.821Z,92.69
2023-01-29T07:00:31.268Z,92.16
2023-01-29T07:01:36.132Z,92.38
2023-01-29T07:02:29.004Z,92.48
2023-01-29T07:03:28.780Z,92.58
2023-01-29T07:04:28.892Z,92.69
2023-01-29T07:05:28.823Z,92.48
2023-01-29T07:06:28.725Z,92.69
2023-01-29T07:07:28.730Z,92.52
2023-01-29T07:08:28.721Z,92.63
2023-01-29T07:09:28.728Z,93.01
2023-01-29T07:10:28.804Z,93.04
2023-01-29T07:11:28.655Z,93.36
2023-01-29T07:12:28.673Z,93.32
2023-01-29T07:13:29.059Z,93.04
2023-01-29T07:14:28.670Z,92.94
2023-01-29T07:15:28.615Z,92.83
2023-01-29T07:16:28.698Z,92.83
2023-01-29T07:17:28.599Z,93.15
2023-01-29T07:18:28.615Z,93.26
2023-01-29T07:19:28.596Z,92.83
2023-01-29T07:20:29.299Z,92.83
2023-01-29T07:21:29.840Z,93.15
2023-01-29T07:22:28.558Z,93.36
2023-01-29T07:23:28.534Z,93.26
2023-01-29T07:24:28.629Z,93.36
2023-01-29T07:25:28.527Z,93.57
2023-01-29T07:26:28.557Z,93.78
2023-01-29T07:27:29.405Z,93.88
2023-01-29T07:28:28.529Z,93.57
2023-01-29T07:29:28.604Z,93.78
2023-01-29T07:30:28.567Z,93.88
2023-01-29T07:31:28.641Z,93.67
2023-01-29T07:32:28.552Z,93.88
2023-01-29T07:33:28.586Z,93.99
2023-01-29T07:34:28.464Z,93.99
2023-01-29T07:35:28.523Z,94.09
2023-01-29T07:36:28.485Z,94.09
2023-01-29T07:37:28.446Z,93.88
2023-01-29T07:38:28.405Z,93.78
2023-01-29T07:39:29.640Z,93.67
2023-01-29T07:40:28.415Z,93.78
2023-01-29T07:41:28.415Z,93.67
2023-01-29T07:42:28.378Z,93.67
2023-01-29T07:43:28.369Z,93.78
2023-01-29T07:44:28.352Z,93.46
2023-01-29T07:45:28.530Z,93.57
2023-01-29T07:46:28.342Z,93.99
2023-01-29T07:47:28.367Z,94.26
2023-01-29T07:48:28.304Z,94.36
2023-01-29T07:49:28.296Z,94.36
2023-01-29T07:50:28.449Z,94.15
2023-01-29T07:51:28.281Z,94.05
2023-01-29T07:52:29.879Z,93.74
2023-01-29T07:53:28.310Z,93.52
2023-01-29T07:54:28.219Z,93.36
2023-01-29T07:55:28.257Z,93.52
2023-01-29T07:56:28.222Z,93.84
2023-01-29T07:57:28.243Z,94.05
2023-01-29T07:58:28.459Z,93.95
2023-01-29T07:59:28.243Z,93.84
2023-01-29T08:00:28.233Z,93.95
2023-01-29T08:01:29.059Z,93.84
2023-01-29T08:02:28.181Z,93.84
2023-01-29T08:03:28.127Z,93.95
2023-01-29T08:04:28.121Z,93.95
2023-01-29T08:05:28.440Z,93.95
2023-01-29T08:06:28.130Z,94.15
2023-01-29T08:07:28.086Z,94.36
2023-01-29T08:08:28.076Z,94.26
2023-01-29T08:09:28.070Z,94.15
2023-01-29T08:10:28.146Z,94.05
2023-01-29T08:11:28.077Z,94.05
2023-01-29T08:12:28.031Z,94.15
2023-01-29T08:13:28.033Z,94.36
2023-01-29T08:14:28.019Z,94.46
2023-01-29T08:15:28.015Z,94.68
2023-01-29T08:16:28.065Z,94.68
2023-01-29T08:17:27.992Z,94.46
2023-01-29T08:18:28.020Z,94.36
2023-01-29T08:19:27.968Z,94.11
2023-01-29T08:20:28.015Z,94.05
2023-01-29T08:21:27.956Z,94.05
2023-01-29T08:22:27.957Z,93.95
2023-01-29T08:23:27.956Z,94.05
2023-01-29T08:24:36.065Z,94.05
2023-01-29T08:25:28.221Z,94.15
2023-01-29T08:26:27.893Z,93.84
2023-01-29T08:27:27.887Z,93.95
2023-01-29T08:28:27.910Z,94.15
2023-01-29T08:29:27.873Z,94.05
2023-01-29T08:30:27.893Z,94.15
2023-01-29T08:31:27.889Z,94.21
2023-01-29T08:32:28.218Z,93.90
2023-01-29T08:33:39.200Z,93.80
2023-01-29T08:34:27.829Z,93.59
2023-01-29T08:35:27.877Z,93.80
2023-01-29T08:36:27.807Z,93.48
2023-01-29T08:37:27.804Z,93.48
2023-01-29T08:38:27.984Z,93.17
2023-01-29T08:39:27.909Z,93.48
2023-01-29T08:40:28.050Z,93.38
2023-01-29T08:41:27.768Z,93.17
2023-01-29T08:42:27.782Z,93.17
2023-01-29T08:43:27.759Z,92.85
2023-01-29T08:44:28.229Z,92.85
2023-01-29T08:45:27.701Z,93.07
2023-01-29T08:46:27.693Z,92.44
2023-01-29T08:47:28.728Z,92.75
2023-01-29T08:48:27.680Z,92.96
2023-01-29T08:49:27.765Z,92.75
2023-01-29T08:50:27.683Z,92.60
2023-01-29T08:51:27.656Z,92.71
2023-01-29T08:52:27.799Z,92.71
2023-01-29T08:53:27.731Z,92.29
2023-01-29T08:54:27.704Z,92.08
2023-01-29T08:55:27.613Z,91.87
2023-01-29T08:56:27.818Z,91.98
2023-01-29T08:57:27.629Z,92.08
2023-01-29T08:58:27.573Z,91.98
2023-01-29T08:59:27.625Z,91.87
2023-01-29T09:00:27.613Z,91.66
2023-01-29T09:01:27.701Z,91.87
2023-01-29T09:02:27.709Z,91.77
2023-01-29T09:03:27.549Z,91.98
2023-01-29T09:04:27.523Z,91.87
2023-01-29T09:05:27.590Z,91.98
2023-01-29T09:06:27.495Z,91.98
2023-01-29T09:07:27.484Z,92.08
2023-01-29T09:08:27.494Z,91.98
2023-01-29T09:09:27.634Z,92.40
2023-01-29T09:10:27.630Z,92.50
2023-01-29T09:11:27.650Z,92.29
2023-01-29T09:12:27.440Z,92.29
2023-01-29T09:13:27.560Z,92.08
2023-01-29T09:14:27.646Z,92.19
2023-01-29T09:15:27.551Z,92.08
2023-01-29T09:16:27.479Z,92.08
2023-01-29T09:17:27.365Z,92.08
2023-01-29T09:18:27.395Z,92.29
2023-01-29T09:19:27.366Z,92.71
2023-01-29T09:20:27.426Z,92.71
2023-01-29T09:21:27.360Z,92.29
2023-01-29T09:22:27.413Z,92.29
2023-01-29T09:23:27.374Z,92.29
2023-01-29T09:24:27.332Z,92.40
2023-01-29T09:25:27.317Z,92.40
2023-01-29T09:26:27.328Z,92.29
2023-01-29T09:27:27.315Z,92.60
2023-01-29T09:28:27.372Z,92.60
2023-01-29T09:29:27.304Z,92.46
2023-01-29T09:30:27.238Z,92.14
2023-01-29T09:31:27.390Z,92.04
2023-01-29T09:32:52.005Z,92.14
2023-01-29T09:33:27.230Z,91.94
2023-01-29T09:34:27.204Z,91.52
2023-01-29T09:35:27.232Z,91.72
2023-01-29T09:36:27.182Z,91.94
2023-01-29T09:37:27.196Z,91.83
2023-01-29T09:38:27.161Z,91.83
2023-01-29T09:39:27.153Z,91.94
2023-01-29T09:40:27.147Z,91.72
2023-01-29T09:41:27.169Z,91.10
2023-01-29T09:42:27.151Z,91.41
2023-01-29T09:43:27.125Z,91.00
2023-01-29T09:44:27.085Z,90.78
2023-01-29T09:45:27.095Z,90.78
2023-01-29T09:46:27.065Z,91.31
2023-01-29T09:47:27.091Z,91.20
2023-01-29T09:48:27.035Z,91.10
2023-01-29T09:49:27.049Z,90.78
2023-01-29T09:50:27.046Z,90.47
2023-01-29T09:51:27.031Z,90.37
2023-01-29T09:52:27.064Z,90.37
2023-01-29T09:53:27.011Z,90.37
2023-01-29T09:54:26.990Z,90.58
2023-01-29T09:55:27.001Z,91.00
2023-01-29T09:56:26.960Z,91.16
2023-01-29T09:57:26.997Z,90.33
2023-01-29T09:58:26.956Z,89.91
2023-01-29T09:59:26.936Z,90.22
2023-01-29T10:00:27.028Z,90.01
2023-01-29T10:01:27.693Z,90.12
2023-01-29T10:02:26.949Z,90.43
2023-01-29T10:03:26.949Z,90.43
2023-01-29T10:04:26.930Z,90.22
2023-01-29T10:05:27.346Z,90.22
2023-01-29T10:06:26.976Z,89.91
2023-01-29T10:07:26.996Z,89.39
2023-01-29T10:08:26.853Z,89.49
2023-01-29T10:09:26.843Z,89.70
2023-01-29T10:10:26.868Z,89.45
2023-01-29T10:11:26.825Z,89.24
2023-01-29T10:12:26.804Z,89.56
2023-01-29T10:13:26.966Z,89.24
2023-01-29T10:14:26.822Z,89.28
2023-01-29T10:15:26.772Z,89.56
2023-01-29T10:16:26.788Z,89.97
2023-01-29T10:17:26.793Z,90.08
2023-01-29T10:18:26.922Z,89.24
2023-01-29T10:19:26.734Z,89.03
2023-01-29T10:20:26.734Z,89.03
2023-01-29T10:21:26.940Z,89.45
2023-01-29T10:22:26.705Z,89.56
2023-01-29T10:23:26.788Z,89.34
2023-01-29T10:24:26.774Z,89.34
2023-01-29T10:25:27.277Z,89.24
2023-01-29T10:26:27.016Z,89.45
2023-01-29T10:27:26.671Z,89.24
2023-01-29T10:28:26.684Z,89.45
2023-01-29T10:29:26.737Z,89.24
2023-01-29T10:30:26.797Z,89.14
2023-01-29T10:31:26.752Z,89.34
2023-01-29T10:32:26.645Z,89.03
2023-01-29T10:33:26.593Z,88.82
2023-01-29T10:34:26.776Z,89.34
2023-01-29T10:35:26.670Z,89.14
2023-01-29T10:36:26.929Z,88.72
2023-01-29T10:37:26.557Z,89.03
2023-01-29T10:38:26.560Z,88.93
2023-01-29T10:39:26.657Z,88.82
2023-01-29T10:40:26.502Z,88.72
2023-01-29T10:41:26.514Z,88.72
2023-01-29T10:42:26.518Z,88.62
2023-01-29T10:43:26.485Z,88.62
2023-01-29T10:44:26.468Z,88.72
2023-01-29T10:45:26.494Z,88.62
2023-01-29T10:46:26.437Z,88.20
2023-01-29T10:47:28.581Z,88.41
2023-01-29T10:48:26.446Z,88.41
2023-01-29T10:49:26.466Z,88.09
2023-01-29T10:50:26.518Z,88.20
2023-01-29T10:51:26.418Z,88.51
2023-01-29T10:52:26.418Z,88.72
2023-01-29T10:53:26.414Z,88.51
2023-01-29T10:54:26.573Z,88.51
2023-01-29T10:55:26.379Z,88.51
2023-01-29T10:56:26.382Z,88.41
2023-01-29T10:57:26.717Z,88.41
2023-01-29T10:58:26.470Z,88.51
2023-01-29T10:59:26.485Z,88.41
2023-01-29T11:00:26.319Z,88.51
2023-01-29T11:01:26.349Z,88.62
2023-01-29T11:02:26.387Z,88.30
2023-01-29T11:03:28.595Z,88.41
2023-01-29T11:04:26.644Z,88.20
2023-01-29T11:05:26.300Z,88.62
2023-01-29T11:06:26.234Z,87.99
2023-01-29T11:07:26.426Z,88.41
2023-01-29T11:08:26.364Z,88.51
2023-01-29T11:09:26.444Z,88.78
2023-01-29T11:10:26.228Z,88.68
2023-01-29T11:11:26.234Z,88.26
2023-01-29T11:12:26.189Z,87.74
2023-01-29T11:13:26.179Z,87.63
2023-01-29T11:14:26.255Z,87.43
2023-01-29T11:15:26.253Z,87.32
2023-01-29T11:16:26.393Z,87.53
2023-01-29T11:17:26.230Z,87.43
2023-01-29T11:18:26.127Z,87.53
2023-01-29T11:19:26.152Z,87.43
2023-01-29T11:20:26.129Z,87.43
2023-01-29T11:21:26.103Z,87.84
2023-01-29T11:22:26.120Z,87.74
2023-01-29T11:23:26.196Z,87.12
2023-01-29T11:24:26.808Z,87.12
2023-01-29T11:25:26.071Z,87.43
2023-01-29T11:26:26.195Z,87.32
2023-01-29T11:27:26.061Z,87.43
2023-01-29T11:28:26.018Z,87.84
2023-01-29T11:29:26.040Z,88.16
2023-01-29T11:30:26.155Z,87.74
2023-01-29T11:31:26.293Z,87.32
2023-01-29T11:32:25.983Z,87.49
2023-01-29T11:33:26.015Z,86.91
2023-01-29T11:34:26.005Z,86.91
2023-01-29T11:35:25.964Z,86.91
2023-01-29T11:36:27.729Z,86.91
2023-01-29T11:37:25.992Z,87.22
2023-01-29T11:38:26.182Z,87.53
2023-01-29T11:39:26.005Z,87.12
2023-01-29T11:40:26.009Z,87.63
2023-01-29T11:41:26.043Z,87.32
2023-01-29T11:42:25.955Z,87.01
2023-01-29T11:43:26.000Z,87.32
2023-01-29T11:44:26.241Z,87.22
2023-01-29T11:45:25.894Z,86.91
2023-01-29T11:46:25.899Z,87.32
2023-01-29T11:47:25.917Z,87.22
2023-01-29T11:48:25.804Z,87.22
2023-01-29T11:49:26.468Z,87.12
2023-01-29T11:50:25.831Z,87.12
2023-01-29T11:51:25.789Z,87.12
2023-01-29T11:52:25.825Z,87.32
2023-01-29T11:53:26.140Z,87.43
2023-01-29T11:54:25.806Z,87.39
2023-01-29T11:55:25.759Z,87.28
2023-01-29T11:56:25.849Z,86.49
2023-01-29T11:57:25.728Z,86.91
2023-01-29T11:58:25.850Z,86.97
2023-01-29T11:59:25.777Z,86.97
2023-01-29T12:00:25.841Z,86.76
2023-01-29T12:01:25.804Z,86.55
2023-01-29T12:02:26.469Z,86.55
2023-01-29T12:03:25.758Z,87.07
2023-01-29T12:04:25.669Z,86.87
2023-01-29T12:05:25.790Z,86.66
2023-01-29T12:06:25.759Z,86.76
2023-01-29T12:07:25.660Z,86.45
2023-01-29T12:08:25.623Z,86.76
2023-01-29T12:09:25.594Z,86.35
2023-01-29T12:10:25.579Z,86.24
2023-01-29T12:11:25.579Z,86.13
2023-01-29T12:12:25.716Z,86.51
2023-01-29T12:13:25.554Z,86.20
2023-01-29T12:14:25.557Z,86.10
2023-01-29T12:15:25.700Z,86.41
2023-01-29T12:16:25.740Z,85.89
2023-01-29T12:17:25.502Z,86.30
2023-01-29T12:18:25.543Z,86.30
2023-01-29T12:19:25.491Z,86.10
2023-01-29T12:20:25.494Z,86.61
2023-01-29T12:21:25.619Z,85.99
2023-01-29T12:22:25.525Z,85.68
2023-01-29T12:23:25.517Z,85.89
2023-01-29T12:24:25.683Z,85.93
2023-01-29T12:25:25.465Z,85.82
2023-01-29T12:26:25.553Z,86.24
2023-01-29T12:27:25.687Z,86.24
2023-01-29T12:28:25.425Z,86.24
2023-01-29T12:29:25.594Z,86.66
2023-01-29T12:30:25.480Z,86.45
2023-01-29T12:31:25.559Z,86.35
2023-01-29T12:32:25.582Z,86.03
2023-01-29T12:33:25.450Z,86.45
2023-01-29T12:34:25.552Z,86.24
2023-01-29T12:35:25.502Z,85.82
2023-01-29T12:36:25.582Z,86.35
2023-01-29T12:37:25.512Z,86.13
2023-01-29T12:38:26.323Z,86.45
2023-01-29T12:39:25.462Z,86.45
2023-01-29T12:40:25.592Z,86.66
2023-01-29T12:41:25.568Z,86.61
2023-01-29T12:42:25.510Z,86.13
2023-01-29T12:43:25.595Z,86.03
2023-01-29T12:44:25.669Z,86.24
2023-01-29T12:45:25.475Z,86.41
2023-01-29T12:46:25.453Z,86.30
2023-01-29T12:47:25.427Z,85.58
2023-01-29T12:48:25.497Z,85.58
2023-01-29T12:49:25.472Z,86.10
2023-01-29T12:50:25.544Z,86.41
2023-01-29T12:51:25.145Z,86.41
2023-01-29T12:52:25.165Z,86.20